Time;durP1;ratioP1;P1;durP2;ratioP2;P2;SDS_P1;SDS_P2;PMS_P1;PMS_P2;Temp;Humidity;BMP_temperature;BMP_pressure;BME280_temperature;BME280_humidity;BME280_pressure;Samples;Min_cycle;Max_cycle;Signal;HPM_P1;HPM_P2
2022/02/06 00:02:30;;;;;;;11.07;7.80;;;;;;;4.66;100.00;100434.97;10157026;28;20551;-70
2022/02/06 00:07:27;;;;;;;14.52;6.05;;;;;;;4.67;100.00;100430.38;10158684;28;20077;-71
2022/02/06 00:12:23;;;;;;;9.43;6.05;;;;;;;4.70;100.00;100422.47;10158194;28;20038;-70
2022/02/06 00:17:22;;;;;;;12.07;6.22;;;;;;;4.73;100.00;100418.38;10148814;28;20594;-70
2022/02/06 00:22:29;;;;;;;7.22;5.03;;;;;;;4.70;100.00;100398.09;10154826;28;20531;-71
2022/02/06 00:27:39;;;;;;;10.23;6.43;;;;;;;4.71;100.00;100402.44;10154211;28;20116;-70
2022/02/06 00:32:43;;;;;;;12.85;7.07;;;;;;;4.74;100.00;100382.91;10164456;28;20046;-70
2022/02/06 00:42:54;;;;;;;9.23;5.88;;;;;;;4.74;100.00;100350.41;10167005;28;20149;-70
2022/02/06 00:47:51;;;;;;;10.73;6.57;;;;;;;4.77;100.00;100354.44;10166804;28;20568;-70
2022/02/06 00:53:06;;;;;;;10.40;6.03;;;;;;;4.79;100.00;100357.66;10162921;28;20174;-70
2022/02/06 00:58:03;;;;;;;8.27;5.22;;;;;;;4.78;100.00;100350.63;10154457;28;20453;-70
2022/02/06 01:02:59;;;;;;;8.45;5.30;;;;;;;4.80;100.00;100332.19;10163521;28;20416;-69
2022/02/06 01:08:16;;;;;;;8.18;5.68;;;;;;;4.78;100.00;100329.78;10166662;28;20485;-70
2022/02/06 01:14:02;;;;;;;8.30;5.53;;;;;;;4.80;100.00;100322.16;10156727;28;20654;-69
2022/02/06 01:18:39;;;;;;;9.98;4.53;;;;;;;4.80;100.00;100294.25;10155777;28;20141;-69
2022/02/06 01:23:55;;;;;;;7.53;4.82;;;;;;;4.82;100.00;100301.00;10164166;28;20038;-70
2022/02/06 01:29:03;;;;;;;10.32;4.75;;;;;;;4.82;100.00;100254.94;10164251;28;20061;-70
2022/02/06 01:34:02;;;;;;;9.93;5.68;;;;;;;4.87;100.00;100250.56;10161939;28;20042;-70
2022/02/06 01:39:52;;;;;;;11.75;5.70;;;;;;;4.91;100.00;100241.56;10152944;28;20504;-70
2022/02/06 01:44:40;;;;;;;12.77;5.68;;;;;;;4.94;100.00;100213.09;10145506;28;20109;-70
2022/02/06 02:00:59;;;;;;;5.95;4.10;;;;;;;4.96;100.00;100198.13;10151156;28;20054;-71
2022/02/06 02:05:53;;;;;;;12.02;5.30;;;;;;;5.03;100.00;100195.06;10148500;28;20054;-72
2022/02/06 02:46:43;;;;;;;11.25;4.63;;;;;;;5.10;100.00;100125.03;10152074;28;20046;-71
2022/02/06 02:51:44;;;;;;;7.63;3.33;;;;;;;5.12;100.00;100112.00;10150080;28;20066;-71
2022/02/06 02:56:49;;;;;;;8.18;3.78;;;;;;;5.15;100.00;100089.75;10144695;28;20073;-71
2022/02/06 03:01:57;;;;;;;9.20;3.63;;;;;;;5.17;100.00;100075.91;10155720;28;20041;-71
2022/02/06 03:06:54;;;;;;;15.55;3.90;;;;;;;5.19;100.00;100069.06;10158251;28;20076;-71
2022/02/06 03:11:50;;;;;;;5.07;3.35;;;;;;;5.18;100.00;100062.06;10156778;28;20134;-71
2022/02/06 03:17:01;;;;;;;6.05;3.95;;;;;;;5.21;100.00;100045.19;10149236;28;20050;-71
2022/02/06 03:21:58;;;;;;;5.57;3.42;;;;;;;5.22;100.00;100046.81;10152772;28;20148;-71
2022/02/06 03:26:56;;;;;;;5.60;3.90;;;;;;;5.27;100.00;100016.91;10161412;28;20145;-71
2022/02/06 03:31:53;;;;;;;6.88;4.45;;;;;;;5.32;100.00;100023.34;10158038;28;20608;-71
2022/02/06 03:36:50;;;;;;;4.72;3.05;;;;;;;5.31;100.00;100005.44;10148754;28;20085;-71
2022/02/06 03:46:57;;;;;;;6.22;2.97;;;;;;;5.36;100.00;100008.06;10159806;28;20688;-71
2022/02/06 03:51:53;;;;;;;6.97;3.80;;;;;;;5.40;100.00;99998.22;10153352;28;20548;-71
2022/02/06 03:56:52;;;;;;;7.95;3.88;;;;;;;5.43;100.00;99986.78;10151132;28;20054;-71
2022/02/06 04:01:49;;;;;;;6.18;4.07;;;;;;;5.44;100.00;99974.84;10154770;28;20563;-71
2022/02/06 04:06:46;;;;;;;7.50;4.10;;;;;;;5.44;100.00;99964.00;10158642;28;20507;-71
2022/02/06 04:11:49;;;;;;;7.60;3.75;;;;;;;5.47;100.00;99966.09;10157906;28;20071;-71
2022/02/06 04:16:51;;;;;;;7.65;2.97;;;;;;;5.47;100.00;99976.94;10154320;28;20078;-71
2022/02/06 04:21:49;;;;;;;5.15;2.90;;;;;;;5.50;100.00;99946.53;10155663;28;20467;-71
2022/02/06 04:26:45;;;;;;;5.40;2.67;;;;;;;5.53;100.00;99932.34;10158849;28;20077;-71
2022/02/06 04:31:43;;;;;;;5.57;3.00;;;;;;;5.54;100.00;99933.94;10158557;28;20532;-71
2022/02/06 04:36:51;;;;;;;5.65;3.25;;;;;;;5.57;100.00;99900.81;10156746;28;20473;-71
2022/02/06 04:47:51;;;;;;;4.88;3.10;;;;;;;5.61;100.00;99885.53;10156550;28;20101;-71
2022/02/06 05:33:22;;;;;;;5.47;3.45;;;;;;;5.74;100.00;99855.97;10156843;28;20546;-70
2022/02/06 05:38:18;;;;;;;6.80;3.50;;;;;;;5.79;100.00;99853.13;10158172;28;20073;-71
2022/02/06 05:43:15;;;;;;;7.50;3.13;;;;;;;5.80;100.00;99854.72;10152851;28;20109;-71
2022/02/06 05:48:11;;;;;;;9.68;4.43;;;;;;;5.84;100.00;99866.59;10156739;28;20079;-70
2022/02/06 05:53:09;;;;;;;8.07;4.63;;;;;;;5.83;100.00;99865.78;10155832;28;20050;-70
2022/02/06 05:58:05;;;;;;;6.80;3.33;;;;;;;5.88;100.00;99845.88;10156014;28;20053;-71
2022/02/06 06:03:04;;;;;;;6.10;2.22;;;;;;;5.88;100.00;99851.31;10156718;28;20181;-71
2022/02/06 06:08:00;;;;;;;9.65;2.60;;;;;;;5.94;100.00;99839.25;10156509;28;20112;-70
2022/02/06 06:13:00;;;;;;;7.05;2.10;;;;;;;5.95;100.00;99834.63;10155518;28;20069;-70
2022/02/06 06:18:02;;;;;;;5.55;1.48;;;;;;;5.95;100.00;99834.63;10150875;28;20093;-71
2022/02/06 06:22:59;;;;;;;7.10;2.20;;;;;;;5.96;100.00;99839.72;10156799;28;20078;-71
2022/02/06 06:27:56;;;;;;;3.85;1.40;;;;;;;5.95;100.00;99819.16;10154764;28;20526;-71
2022/02/06 06:32:52;;;;;;;4.47;1.33;;;;;;;5.93;100.00;99828.69;10152867;28;20409;-71
2022/02/06 06:38:09;;;;;;;4.32;1.10;;;;;;;5.98;100.00;99818.50;10151343;28;20042;-71
2022/02/06 06:43:06;;;;;;;8.25;2.17;;;;;;;5.97;100.00;99811.50;10155849;28;20042;-71
2022/02/06 06:48:03;;;;;;;4.97;1.60;;;;;;;5.97;100.00;99806.06;10154093;28;20089;-71
2022/02/06 06:53:03;;;;;;;7.70;2.33;;;;;;;5.97;100.00;99808.78;10153852;28;20073;-71
2022/02/06 07:03:09;;;;;;;2.95;0.70;;;;;;;5.90;100.00;99811.91;10153060;28;20133;-71
2022/02/06 07:08:05;;;;;;;4.93;0.80;;;;;;;5.83;100.00;99810.75;10152863;28;20438;-71
2022/02/06 07:13:02;;;;;;;4.25;0.60;;;;;;;5.78;100.00;99813.53;10156809;28;20042;-71
2022/02/06 07:17:58;;;;;;;6.15;0.57;;;;;;;5.75;100.00;99814.16;10147655;28;20592;-70
2022/02/06 07:22:55;;;;;;;3.70;1.02;;;;;;;5.66;100.00;99806.78;10156986;28;20081;-71
2022/02/06 07:27:51;;;;;;;4.45;0.50;;;;;;;5.64;100.00;99800.84;10159378;28;20535;-70
2022/02/06 07:32:48;;;;;;;6.05;0.70;;;;;;;5.62;100.00;99800.38;10155195;28;20472;-71
2022/02/06 07:37:49;;;;;;;2.40;0.30;;;;;;;5.57;100.00;99781.50;10154406;28;20089;-71
2022/02/06 07:42:45;;;;;;;6.68;1.00;;;;;;;5.55;100.00;99789.13;10165355;28;20112;-70
2022/02/06 07:47:44;;;;;;;4.18;0.65;;;;;;;5.54;100.00;99787.53;10161324;28;20559;-71
2022/02/06 07:52:41;;;;;;;3.65;0.57;;;;;;;5.53;100.00;99780.50;10160964;28;20078;-70
2022/02/06 07:57:38;;;;;;;4.75;0.60;;;;;;;5.49;100.00;99771.38;10159178;28;20199;-71
2022/02/06 08:02:35;;;;;;;3.08;0.50;;;;;;;5.49;100.00;99768.66;10161257;28;20500;-71
2022/02/06 08:07:33;;;;;;;3.22;0.57;;;;;;;5.39;100.00;99749.94;10164918;28;20104;-70
2022/02/06 08:12:40;;;;;;;8.95;1.27;;;;;;;5.38;100.00;99734.75;10164234;28;20077;-70
2022/02/06 08:17:39;;;;;;;3.03;0.30;;;;;;;5.40;100.00;99727.13;10154565;28;20054;-70
2022/02/06 08:22:35;;;;;;;3.00;0.30;;;;;;;5.39;100.00;99720.13;10162890;28;20042;-71
2022/02/06 08:27:32;;;;;;;1.63;0.47;;;;;;;5.37;100.00;99711.50;10160374;28;20066;-71
2022/02/06 08:32:29;;;;;;;1.40;0.30;;;;;;;5.41;100.00;99702.44;10157393;28;20501;-70
2022/02/06 08:37:25;;;;;;;4.45;0.50;;;;;;;5.43;100.00;99696.69;10154197;28;20137;-70
2022/02/06 08:42:22;;;;;;;2.80;0.73;;;;;;;5.47;100.00;99684.13;10154209;28;20464;-71
2022/02/06 08:47:22;;;;;;;2.72;0.30;;;;;;;5.47;100.00;99684.91;10150720;28;20060;-71
2022/02/06 08:52:19;;;;;;;1.95;0.40;;;;;;;5.50;100.00;99651.00;10152555;28;20046;-71
2022/02/06 08:57:22;;;;;;;1.88;0.40;;;;;;;5.56;100.00;99649.72;10171850;28;20049;-71
2022/02/06 09:02:19;;;;;;;;;;;;;;;5.60;100.00;99629.03;10160016;28;20141;-71
2022/02/06 09:07:20;;;;;;;1.63;0.28;;;;;;;5.59;100.00;99642.88;10152536;28;19925;-70
2022/02/06 09:12:19;;;;;;;2.05;0.30;;;;;;;5.59;100.00;99632.88;10148815;28;20073;-70
2022/02/06 09:17:16;;;;;;;2.22;0.35;;;;;;;5.52;100.00;99637.09;10162241;28;20108;-71
2022/02/06 09:22:13;;;;;;;3.90;0.50;;;;;;;5.54;100.00;99634.88;10156275;28;20062;-66
2022/02/06 09:27:10;;;;;;;2.45;0.63;;;;;;;5.53;100.00;99628.66;10151527;28;20112;-69
2022/02/06 09:37:27;;;;;;;1.85;0.30;;;;;;;5.55;100.00;99612.09;10174038;28;20073;-69
2022/02/06 09:42:27;;;;;;;1.95;0.40;;;;;;;5.58;100.00;99598.69;10154283;28;20085;-69
2022/02/06 09:47:26;;;;;;;3.55;0.40;;;;;;;5.62;100.00;99577.19;10149664;28;20078;-69
2022/02/06 09:52:32;;;;;;;1.80;0.40;;;;;;;5.63;100.00;99563.31;10144550;28;20054;-69
2022/02/06 09:57:41;;;;;;;2.42;0.30;;;;;;;5.65;100.00;99550.25;10155265;28;20089;-69
2022/02/06 10:02:39;;;;;;;1.55;0.30;;;;;;;5.70;100.00;99522.97;10153285;28;20050;-69
2022/02/06 10:07:43;;;;;;;2.38;0.40;;;;;;;5.70;100.00;99504.00;10120926;28;20062;-69
2022/02/06 10:12:44;;;;;;;1.23;0.20;;;;;;;5.70;100.00;99514.84;10122852;28;20129;-69
2022/02/06 10:17:42;;;;;;;2.47;0.35;;;;;;;5.72;100.00;99513.75;10136809;28;20051;-69
2022/02/06 10:23:01;;;;;;;1.95;0.60;;;;;;;5.66;100.00;99508.47;10147429;28;20104;-70
2022/02/06 10:28:21;;;;;;;3.60;0.93;;;;;;;5.80;100.00;99480.41;10149442;28;20489;-69
2022/02/06 10:33:20;;;;;;;9.48;4.88;;;;;;;5.83;100.00;99474.38;10153178;28;20089;-69
2022/02/06 10:38:21;;;;;;;4.03;1.30;;;;;;;5.79;100.00;99452.47;10155383;28;20042;-69
2022/02/06 10:43:17;;;;;;;4.78;1.30;;;;;;;5.84;100.00;99422.50;10158914;28;20136;-69
2022/02/06 10:48:20;;;;;;;4.28;1.80;;;;;;;5.94;100.00;99407.88;10151269;28;20168;-70
2022/02/06 10:53:17;;;;;;;5.18;2.58;;;;;;;5.92;100.00;99404.63;10149687;28;20144;-69
2022/02/06 10:58:17;;;;;;;6.85;1.95;;;;;;;5.94;100.00;99383.44;10169091;28;20701;-69
2022/02/06 11:03:23;;;;;;;6.88;4.13;;;;;;;5.97;100.00;99382.81;10157636;28;20495;-69
2022/02/06 11:08:29;;;;;;;5.22;2.60;;;;;;;5.94;100.00;99361.75;10153837;28;20051;-69
2022/02/06 11:13:27;;;;;;;4.20;2.08;;;;;;;5.87;100.00;99339.66;10120878;28;20557;-68
2022/02/06 11:18:28;;;;;;;2.50;0.93;;;;;;;5.78;100.00;99318.00;10128798;28;20724;-69
2022/02/06 11:23:37;;;;;;;2.20;0.95;;;;;;;5.75;100.00;99320.53;10156216;28;20101;-68
2022/02/06 11:28:34;;;;;;;4.72;0.80;;;;;;;5.63;100.00;99302.19;10168431;28;20061;-69
2022/02/06 11:33:35;;;;;;;3.53;1.15;;;;;;;5.66;100.00;99291.53;10158959;28;20085;-68
2022/02/06 11:44:24;;;;;;;29.38;1.63;;;;;;;5.40;100.00;99282.56;10168680;28;20574;-68
2022/02/06 11:49:22;;;;;;;0.80;0.20;;;;;;;5.23;100.00;99251.63;10151505;28;20451;-70
2022/02/06 11:54:33;;;;;;;1.60;0.30;;;;;;;5.28;100.00;99243.34;10150498;28;20050;-69
2022/02/06 11:59:32;;;;;;;3.33;0.63;;;;;;;5.35;100.00;99231.25;10154745;28;20046;-69
2022/02/06 12:04:29;;;;;;;2.10;0.35;;;;;;;5.20;100.00;99225.19;10173452;28;20101;-69
2022/02/06 12:09:29;;;;;;;1.88;0.50;;;;;;;5.26;100.00;99223.88;10166899;28;20089;-68
2022/02/06 12:14:29;;;;;;;1.65;0.47;;;;;;;5.22;100.00;99211.28;10153686;28;20145;-69
2022/02/06 12:19:31;;;;;;;3.65;0.57;;;;;;;5.25;100.00;99199.84;10113952;28;20136;-69
2022/02/06 12:24:41;;;;;;;3.88;0.45;;;;;;;5.18;100.00;99200.31;10159880;28;20871;-69
2022/02/06 12:29:43;;;;;;;2.50;0.50;;;;;;;5.05;100.00;99206.69;10165189;28;20132;-69
2022/02/06 12:40:14;;;;;;;1.65;0.57;;;;;;;4.69;100.00;99188.81;10149339;28;20113;-69
2022/02/06 12:45:14;;;;;;;1.13;0.30;;;;;;;4.71;100.00;99186.56;10166576;28;21539;-69
2022/02/06 12:50:21;;;;;;;1.20;0.30;;;;;;;4.53;100.00;99174.91;10152674;28;20141;-69
2022/02/06 12:55:19;;;;;;;2.20;0.30;;;;;;;4.37;100.00;99162.94;10154934;28;20046;-68
2022/02/06 13:00:25;;;;;;;1.90;0.30;;;;;;;4.37;100.00;99143.97;10168558;28;20050;-69
2022/02/06 13:05:21;;;;;;;1.63;0.40;;;;;;;4.36;100.00;99137.78;10150832;28;20450;-69
2022/02/06 13:10:20;;;;;;;1.45;0.25;;;;;;;4.27;100.00;99123.44;10169307;28;20089;-69
2022/02/06 13:20:48;;;;;;;3.10;0.88;;;;;;;4.26;100.00;99089.34;10154271;28;20077;-70
2022/02/06 13:35:59;;;;;;;0.90;0.30;;;;;;;3.98;100.00;99084.19;10156003;28;20129;-69
2022/02/06 13:40:57;;;;;;;1.20;0.30;;;;;;;3.88;100.00;99068.28;10151635;28;20153;-69
2022/02/06 13:45:57;;;;;;;1.35;0.20;;;;;;;3.94;100.00;99061.59;10150582;28;20085;-70
2022/02/06 13:50:58;;;;;;;1.50;0.50;;;;;;;3.84;100.00;99061.88;10147166;28;20046;-69
2022/02/06 13:56:01;;;;;;;2.15;0.43;;;;;;;3.87;100.00;99065.88;10153364;28;20129;-69
2022/02/06 14:01:01;;;;;;;1.20;0.40;;;;;;;3.88;100.00;99057.47;10149120;28;20047;-69
2022/02/06 14:05:57;;;;;;;1.65;0.35;;;;;;;3.90;100.00;99057.94;10150276;28;20046;-68
2022/02/06 14:11:07;;;;;;;3.75;0.60;;;;;;;3.72;100.00;99064.41;10150185;28;20089;-68
2022/02/06 14:16:07;;;;;;;1.48;0.40;;;;;;;3.72;100.00;99070.59;10145084;28;20385;-67
2022/02/06 14:21:04;;;;;;;1.17;0.28;;;;;;;3.72;100.00;99080.63;10154158;28;20078;-68
2022/02/06 14:26:14;;;;;;;1.83;0.68;;;;;;;3.72;100.00;99080.63;10150141;28;20482;-68
2022/02/06 14:31:30;;;;;;;2.38;0.30;;;;;;;3.80;100.00;99079.84;10159428;28;20080;-69
2022/02/06 14:36:27;;;;;;;1.83;0.55;;;;;;;3.84;100.00;99083.53;10143137;28;20134;-69
2022/02/06 14:41:34;;;;;;;2.25;0.50;;;;;;;3.71;100.00;99089.81;10144305;28;20408;-69
2022/02/06 14:46:32;;;;;;;2.42;0.70;;;;;;;3.80;100.00;99104.16;10144722;28;20050;-69
2022/02/06 14:51:31;;;;;;;8.00;0.70;;;;;;;3.77;100.00;99099.41;10164504;28;20054;-69
2022/02/06 14:56:32;;;;;;;2.15;0.70;;;;;;;3.75;100.00;99098.91;10158862;28;20089;-69
2022/02/06 15:01:29;;;;;;;2.88;0.63;;;;;;;3.85;100.00;99112.13;10151461;28;20053;-69
2022/02/06 15:06:26;;;;;;;1.80;0.40;;;;;;;3.93;100.00;99119.50;10156107;28;20069;-69
2022/02/06 15:11:22;;;;;;;2.53;0.57;;;;;;;3.98;100.00;99122.06;10148434;28;20080;-69
2022/02/06 15:16:24;;;;;;;3.20;0.60;;;;;;;4.05;100.00;99121.59;10147611;28;20089;-69
2022/02/06 15:21:20;;;;;;;3.20;0.63;;;;;;;4.11;100.00;99133.09;10150275;28;20101;-69
2022/02/06 15:26:17;;;;;;;2.40;0.60;;;;;;;4.14;100.00;99145.97;10144403;28;20054;-68
2022/02/06 15:31:14;;;;;;;9.48;0.82;;;;;;;4.24;100.00;99144.91;10152057;28;20508;-70
2022/02/06 15:36:11;;;;;;;4.45;0.75;;;;;;;4.19;100.00;99159.38;10160506;28;20065;-69
2022/02/06 15:41:08;;;;;;;3.60;0.95;;;;;;;4.25;100.00;99150.00;10145353;28;20054;-68
2022/02/06 15:46:04;;;;;;;6.68;1.20;;;;;;;4.30;100.00;99155.25;10156055;28;20093;-69
2022/02/06 15:51:01;;;;;;;7.80;0.90;;;;;;;4.36;100.00;99170.25;10147583;28;20043;-69
2022/02/06 15:55:57;;;;;;;5.85;1.33;;;;;;;4.31;100.00;99178.50;10147902;28;20136;-69
2022/02/06 16:00:54;;;;;;;6.38;0.90;;;;;;;4.36;100.00;99175.66;10153913;28;20042;-70
2022/02/06 16:05:50;;;;;;;12.93;2.35;;;;;;;4.35;100.00;99175.97;10159282;28;20121;-69
2022/02/06 16:10:48;;;;;;;7.45;1.98;;;;;;;4.35;100.00;99179.47;10152856;28;20133;-69
2022/02/06 16:15:45;;;;;;;9.63;1.67;;;;;;;4.32;100.00;99180.09;10149030;28;20668;-68
2022/02/06 16:20:41;;;;;;;16.95;2.08;;;;;;;4.35;100.00;99168.66;10167259;28;20039;-69
2022/02/06 16:25:38;;;;;;;14.65;1.60;;;;;;;4.40;100.00;99160.38;10170044;28;20050;-69
2022/02/06 16:30:35;;;;;;;13.60;2.72;;;;;;;4.50;100.00;99169.31;10165221;28;20074;-68
2022/02/06 16:35:31;;;;;;;34.15;3.08;;;;;;;4.55;100.00;99161.03;10173493;28;20066;-68
2022/02/06 16:40:48;;;;;;;16.30;2.15;;;;;;;4.54;100.00;99148.63;10170067;28;20048;-69
2022/02/06 16:45:44;;;;;;;12.18;1.60;;;;;;;4.56;100.00;99151.81;10167527;28;20074;-69
2022/02/06 16:50:40;;;;;;;11.73;1.27;;;;;;;4.48;100.00;99156.13;10179407;28;20500;-68
2022/02/06 16:55:37;;;;;;;10.57;1.35;;;;;;;4.36;100.00;99162.13;10169167;28;20062;-69
2022/02/06 17:00:33;;;;;;;11.80;1.52;;;;;;;4.29;100.00;99172.59;10143493;28;20137;-69
2022/02/06 17:05:30;;;;;;;14.23;2.83;;;;;;;4.27;100.00;99172.13;10158684;28;20081;-69
2022/02/06 17:10:30;;;;;;;22.13;2.63;;;;;;;4.30;100.00;99173.41;10171299;28;20133;-68
2022/02/06 17:15:27;;;;;;;11.82;1.38;;;;;;;4.26;100.00;99180.56;10173605;28;20066;-69
2022/02/06 17:20:25;;;;;;;12.98;1.42;;;;;;;4.28;100.00;99171.00;10162537;28;20116;-68
2022/02/06 17:25:21;;;;;;;14.90;1.90;;;;;;;4.31;100.00;99183.91;10158816;28;20057;-69
2022/02/06 17:30:18;;;;;;;11.70;2.15;;;;;;;4.33;100.00;99170.88;10167269;28;20225;-69
2022/02/06 17:35:15;;;;;;;11.27;1.85;;;;;;;4.30;100.00;99182.31;10171455;28;20085;-69
2022/02/06 17:40:12;;;;;;;13.23;2.03;;;;;;;4.13;100.00;99201.19;10103588;28;20051;-69
2022/02/06 17:45:11;;;;;;;12.50;1.95;;;;;;;3.72;100.00;99210.38;10169655;28;20076;-68
2022/02/06 17:50:10;;;;;;;9.45;0.70;;;;;;;3.30;100.00;99188.16;10164954;28;20042;-68
2022/02/06 17:55:07;;;;;;;4.93;0.50;;;;;;;3.17;100.00;99163.56;10166427;28;20081;-68
2022/02/06 18:00:05;;;;;;;8.20;1.20;;;;;;;3.29;100.00;99154.13;10159657;28;20508;-69
2022/02/06 18:05:01;;;;;;;9.85;1.05;;;;;;;3.40;100.00;99160.09;10170563;28;20066;-69
2022/02/06 18:09:58;;;;;;;8.85;1.77;;;;;;;3.53;100.00;99153.81;10159890;28;20797;-68
2022/02/06 18:14:55;;;;;;;13.82;1.45;;;;;;;3.63;100.00;99164.34;10146141;28;20093;-68
2022/02/06 18:19:53;;;;;;;7.93;1.35;;;;;;;3.72;100.00;99150.91;10154448;28;20521;-70
2022/02/06 18:24:50;;;;;;;12.20;1.73;;;;;;;3.86;100.00;99173.22;10145507;28;20050;-69
2022/02/06 18:29:47;;;;;;;7.63;1.75;;;;;;;3.84;100.00;99194.38;10161657;28;20120;-69
2022/02/06 18:34:44;;;;;;;8.15;1.65;;;;;;;3.79;100.00;99199.91;10146060;28;20085;-69
2022/02/06 18:39:41;;;;;;;12.30;2.45;;;;;;;3.81;100.00;99208.53;10159934;28;20445;-69
2022/02/06 18:44:38;;;;;;;12.27;2.05;;;;;;;3.81;100.00;99189.59;10161493;28;20104;-69
2022/02/06 18:49:35;;;;;;;8.52;1.77;;;;;;;3.83;100.00;99189.25;10169447;28;20058;-68
2022/02/06 18:54:33;;;;;;;10.95;2.10;;;;;;;3.87;100.00;99187.53;10143104;28;20432;-69
2022/02/06 18:59:30;;;;;;;11.60;1.88;;;;;;;3.90;100.00;99185.03;10145269;28;20078;-70
2022/02/06 19:04:31;;;;;;;12.05;1.88;;;;;;;3.93;100.00;99197.91;10151183;28;20057;-68
2022/02/06 19:09:28;;;;;;;10.95;1.58;;;;;;;3.99;100.00;99188.56;10140770;28;20038;-68
2022/02/06 19:14:25;;;;;;;15.32;2.58;;;;;;;4.06;100.00;99198.13;10145882;28;20086;-69
2022/02/06 19:19:21;;;;;;;12.02;1.88;;;;;;;4.07;100.00;99189.72;10100750;28;20049;-69
2022/02/06 19:24:18;;;;;;;11.70;1.23;;;;;;;4.00;100.00;99173.94;10142771;28;20261;-68
2022/02/06 19:29:15;;;;;;;9.30;1.52;;;;;;;3.98;100.00;99176.16;10149000;28;20084;-68
2022/02/06 19:34:18;;;;;;;9.18;1.70;;;;;;;3.91;100.00;99164.97;10144724;28;20074;-68
2022/02/06 19:39:15;;;;;;;10.73;1.58;;;;;;;3.82;100.00;99177.66;10143959;28;20489;-70
2022/02/06 19:44:12;;;;;;;10.88;1.52;;;;;;;3.79;100.00;99183.69;10143521;28;20069;-70
2022/02/06 19:49:12;;;;;;;13.20;1.48;;;;;;;3.82;100.00;99183.06;10140927;28;20043;-69
2022/02/06 19:54:09;;;;;;;12.30;1.63;;;;;;;3.74;100.00;99171.09;10140771;28;20062;-69
2022/02/06 19:59:08;;;;;;;14.13;1.52;;;;;;;3.71;100.00;99173.63;10103370;28;20051;-69
2022/02/06 20:04:05;;;;;;;12.15;1.75;;;;;;;3.71;100.00;99176.31;10100575;28;20394;-69
2022/02/06 20:09:02;;;;;;;11.40;1.63;;;;;;;3.69;100.00;99211.78;10149853;28;20038;-69
2022/02/06 20:14:00;;;;;;;7.13;1.27;;;;;;;3.49;100.00;99277.94;10133956;28;20046;-69
2022/02/06 20:18:57;;;;;;;11.55;3.20;;;;;;;3.13;100.00;99270.63;10136852;28;20492;-69
2022/02/06 20:23:57;;;;;;;7.05;0.77;;;;;;;2.90;100.00;99277.06;10105081;28;20070;-69
2022/02/06 20:28:55;;;;;;;4.65;0.73;;;;;;;2.84;100.00;99278.28;10136400;28;20034;-68
2022/02/06 20:33:52;;;;;;;3.95;0.50;;;;;;;2.70;100.00;99278.28;10143759;28;20097;-69
2022/02/06 20:38:49;;;;;;;4.30;0.55;;;;;;;2.67;100.00;99305.84;10142960;28;20420;-69
2022/02/06 20:43:49;;;;;;;5.78;0.95;;;;;;;2.48;100.00;99322.13;10143377;28;20054;-69
2022/02/06 20:48:47;;;;;;;3.35;0.80;;;;;;;1.94;100.00;99335.19;10163328;28;20405;-69
2022/02/06 20:53:44;;;;;;;5.57;0.73;;;;;;;1.99;100.00;99328.91;10160175;28;20133;-68
2022/02/06 20:58:42;;;;;;;5.72;0.70;;;;;;;1.84;100.00;99328.06;10157774;28;20467;-69
2022/02/06 21:03:40;;;;;;;9.40;0.90;;;;;;;2.04;100.00;99336.91;10142392;28;20570;-69
2022/02/06 21:08:37;;;;;;;5.68;0.70;;;;;;;2.23;100.00;99343.09;10133338;28;20547;-69
2022/02/06 21:13:34;;;;;;;5.53;1.17;;;;;;;2.25;100.00;99338.19;10133666;28;20583;-69
2022/02/06 21:18:43;;;;;;;7.20;1.25;;;;;;;2.29;100.00;99323.00;10149477;28;20081;-69
2022/02/06 21:23:39;;;;;;;13.95;1.08;;;;;;;2.23;100.00;99312.63;10153792;28;20050;-69
2022/02/06 21:28:36;;;;;;;9.23;1.10;;;;;;;2.20;100.00;99319.38;10153627;28;20057;-69
2022/02/06 21:33:35;;;;;;;12.07;2.38;;;;;;;2.21;100.00;99326.41;10155201;28;20050;-69
2022/02/06 21:38:32;;;;;;;11.38;1.08;;;;;;;2.20;100.00;99346.34;10154159;28;20066;-69
2022/02/06 21:43:28;;;;;;;9.25;1.42;;;;;;;2.20;100.00;99354.44;10151069;28;20078;-68
2022/02/06 21:48:25;;;;;;;9.75;1.05;;;;;;;2.12;100.00;99359.72;10162974;28;20046;-67
2022/02/06 21:53:22;;;;;;;8.27;2.15;;;;;;;2.11;100.00;99364.31;10168470;28;20050;-68
2022/02/06 21:58:18;;;;;;;13.80;0.95;;;;;;;2.07;100.00;99376.78;10157678;28;20042;-68
2022/02/06 22:03:17;;;;;;;10.57;1.10;;;;;;;2.08;100.00;99386.47;10160253;28;20052;-68
2022/02/06 22:33:48;;;;;;;13.10;2.55;;;;;;;2.26;100.00;99449.56;10155435;28;20101;-68
2022/02/06 22:38:45;;;;;;;9.05;1.20;;;;;;;2.28;100.00;99452.78;10164103;28;20039;-69
2022/02/06 22:43:42;;;;;;;5.95;1.00;;;;;;;2.29;100.00;99482.13;10155256;28;20512;-69
2022/02/06 22:48:38;;;;;;;10.57;1.10;;;;;;;2.27;100.00;99484.31;10152902;28;20051;-69
2022/02/06 22:53:42;;;;;;;11.13;0.90;;;;;;;2.31;100.00;99493.44;10156358;28;20580;-69
2022/02/06 22:58:39;;;;;;;5.28;0.90;;;;;;;2.31;100.00;99496.13;10166571;28;20133;-69
2022/02/06 23:03:38;;;;;;;10.00;1.65;;;;;;;2.20;100.00;99494.69;10161163;28;20081;-69
2022/02/06 23:08:35;;;;;;;9.52;1.45;;;;;;;2.18;100.00;99499.59;10163975;28;20641;-69
2022/02/06 23:13:32;;;;;;;10.48;1.20;;;;;;;2.15;100.00;99510.94;10152772;28;20748;-69
2022/02/06 23:18:29;;;;;;;11.40;2.80;;;;;;;2.17;100.00;99518.75;10156836;28;20078;-68
2022/02/06 23:23:26;;;;;;;25.42;1.58;;;;;;;2.27;100.00;99535.56;10153337;28;20069;-69
2022/02/06 23:28:23;;;;;;;17.73;1.70;;;;;;;2.28;100.00;99541.78;10145499;28;20112;-69
2022/02/06 23:33:20;;;;;;;7.72;1.05;;;;;;;2.18;100.00;99558.09;10106222;28;20093;-69
2022/02/06 23:38:18;;;;;;;9.65;1.38;;;;;;;2.08;100.00;99564.44;10108532;28;20469;-69
2022/02/06 23:43:19;;;;;;;7.78;1.25;;;;;;;2.04;100.00;99568.78;10114116;28;20050;-69
2022/02/06 23:48:19;;;;;;;5.27;0.67;;;;;;;1.98;100.00;99576.16;10150326;28;20069;-69
2022/02/06 23:58:24;;;;;;;8.13;0.80;;;;;;;1.92;100.00;99604.25;10162372;28;20049;-68
